sensor_id;sensor_type;location;lat;lon;timestamp;P1;durP1;ratioP1;P2;durP2;ratioP2
53313;SDS011;39202;51.468;7.146;2023-04-03T00:02:57;0.60;;;0.60;;
53313;SDS011;39202;51.468;7.146;2023-04-03T00:08:00;0.50;;;0.50;;
53313;SDS011;39202;51.468;7.146;2023-04-03T00:13:02;0.60;;;0.60;;
53313;SDS011;39202;51.468;7.146;2023-04-03T00:18:04;0.60;;;0.60;;
53313;SDS011;39202;51.468;7.146;2023-04-03T00:23:07;0.60;;;0.60;;
53313;SDS011;39202;51.468;7.146;2023-04-03T00:28:09;0.70;;;0.70;;
53313;SDS011;39202;51.468;7.146;2023-04-03T00:33:11;0.88;;;0.88;;
53313;SDS011;39202;51.468;7.146;2023-04-03T00:38:15;0.70;;;0.70;;
53313;SDS011;39202;51.468;7.146;2023-04-03T00:43:17;0.70;;;0.70;;
53313;SDS011;39202;51.468;7.146;2023-04-03T00:48:21;0.90;;;0.90;;
53313;SDS011;39202;51.468;7.146;2023-04-03T00:53:27;0.70;;;0.70;;
53313;SDS011;39202;51.468;7.146;2023-04-03T00:58:32;0.60;;;0.60;;
53313;SDS011;39202;51.468;7.146;2023-04-03T01:03:38;0.77;;;0.77;;
53313;SDS011;39202;51.468;7.146;2023-04-03T01:08:41;0.70;;;0.70;;
53313;SDS011;39202;51.468;7.146;2023-04-03T01:13:43;0.85;;;0.85;;
53313;SDS011;39202;51.468;7.146;2023-04-03T01:18:45;0.70;;;0.70;;
53313;SDS011;39202;51.468;7.146;2023-04-03T01:23:52;0.70;;;0.70;;
53313;SDS011;39202;51.468;7.146;2023-04-03T01:29:06;0.70;;;0.70;;
53313;SDS011;39202;51.468;7.146;2023-04-03T01:34:09;0.82;;;0.82;;
53313;SDS011;39202;51.468;7.146;2023-04-03T01:39:11;0.60;;;0.60;;
53313;SDS011;39202;51.468;7.146;2023-04-03T01:44:13;0.80;;;0.80;;
53313;SDS011;39202;51.468;7.146;2023-04-03T01:49:16;0.68;;;0.68;;
53313;SDS011;39202;51.468;7.146;2023-04-03T01:54:18;0.63;;;0.63;;
53313;SDS011;39202;51.468;7.146;2023-04-03T01:59:20;0.70;;;0.70;;
53313;SDS011;39202;51.468;7.146;2023-04-03T02:09:25;0.70;;;0.70;;
53313;SDS011;39202;51.468;7.146;2023-04-03T02:14:27;0.80;;;0.80;;
53313;SDS011;39202;51.468;7.146;2023-04-03T02:19:29;0.85;;;0.85;;
53313;SDS011;39202;51.468;7.146;2023-04-03T02:24:32;0.77;;;0.77;;
53313;SDS011;39202;51.468;7.146;2023-04-03T02:29:34;0.60;;;0.60;;
53313;SDS011;39202;51.468;7.146;2023-04-03T02:34:36;0.70;;;0.70;;
53313;SDS011;39202;51.468;7.146;2023-04-03T02:39:39;0.70;;;0.70;;
53313;SDS011;39202;51.468;7.146;2023-04-03T02:44:40;0.70;;;0.70;;
53313;SDS011;39202;51.468;7.146;2023-04-03T02:49:42;0.90;;;0.90;;
53313;SDS011;39202;51.468;7.146;2023-04-03T02:54:47;0.82;;;0.82;;
53313;SDS011;39202;51.468;7.146;2023-04-03T02:59:48;0.85;;;0.85;;
53313;SDS011;39202;51.468;7.146;2023-04-03T03:04:50;0.90;;;0.90;;
53313;SDS011;39202;51.468;7.146;2023-04-03T03:09:53;0.70;;;0.70;;
53313;SDS011;39202;51.468;7.146;2023-04-03T03:14:55;0.80;;;0.80;;
53313;SDS011;39202;51.468;7.146;2023-04-03T03:19:57;0.80;;;0.80;;
53313;SDS011;39202;51.468;7.146;2023-04-03T03:25:00;0.73;;;0.73;;
53313;SDS011;39202;51.468;7.146;2023-04-03T03:30:02;0.70;;;0.70;;
53313;SDS011;39202;51.468;7.146;2023-04-03T03:35:05;0.68;;;0.68;;
53313;SDS011;39202;51.468;7.146;2023-04-03T03:40:09;0.90;;;0.90;;
53313;SDS011;39202;51.468;7.146;2023-04-03T03:45:13;0.85;;;0.85;;
53313;SDS011;39202;51.468;7.146;2023-04-03T03:50:14;0.70;;;0.70;;
53313;SDS011;39202;51.468;7.146;2023-04-03T03:55:18;0.80;;;0.80;;
53313;SDS011;39202;51.468;7.146;2023-04-03T04:00:19;0.77;;;0.77;;
53313;SDS011;39202;51.468;7.146;2023-04-03T04:05:21;0.88;;;0.88;;
53313;SDS011;39202;51.468;7.146;2023-04-03T04:10:24;0.70;;;0.70;;
53313;SDS011;39202;51.468;7.146;2023-04-03T04:15:26;0.73;;;0.73;;
53313;SDS011;39202;51.468;7.146;2023-04-03T04:20:28;0.80;;;0.80;;
53313;SDS011;39202;51.468;7.146;2023-04-03T04:25:31;0.82;;;0.82;;
53313;SDS011;39202;51.468;7.146;2023-04-03T04:30:33;0.70;;;0.70;;
53313;SDS011;39202;51.468;7.146;2023-04-03T04:35:35;0.70;;;0.70;;
53313;SDS011;39202;51.468;7.146;2023-04-03T04:40:38;0.80;;;0.80;;
53313;SDS011;39202;51.468;7.146;2023-04-03T04:45:40;0.90;;;0.90;;
53313;SDS011;39202;51.468;7.146;2023-04-03T04:50:42;0.80;;;0.80;;
53313;SDS011;39202;51.468;7.146;2023-04-03T04:55:45;0.80;;;0.80;;
53313;SDS011;39202;51.468;7.146;2023-04-03T05:00:47;0.73;;;0.73;;
53313;SDS011;39202;51.468;7.146;2023-04-03T05:05:49;0.70;;;0.70;;
53313;SDS011;39202;51.468;7.146;2023-04-03T05:10:52;0.82;;;0.82;;
53313;SDS011;39202;51.468;7.146;2023-04-03T05:15:54;0.60;;;0.60;;
53313;SDS011;39202;51.468;7.146;2023-04-03T05:20:56;0.80;;;0.80;;
53313;SDS011;39202;51.468;7.146;2023-04-03T05:26:00;0.65;;;0.65;;
53313;SDS011;39202;51.468;7.146;2023-04-03T05:31:01;0.70;;;0.70;;
53313;SDS011;39202;51.468;7.146;2023-04-03T05:36:04;0.63;;;0.63;;
53313;SDS011;39202;51.468;7.146;2023-04-03T05:41:08;0.73;;;0.73;;
53313;SDS011;39202;51.468;7.146;2023-04-03T05:46:10;0.70;;;0.70;;
53313;SDS011;39202;51.468;7.146;2023-04-03T05:51:14;0.90;;;0.90;;
53313;SDS011;39202;51.468;7.146;2023-04-03T05:56:18;0.60;;;0.60;;
53313;SDS011;39202;51.468;7.146;2023-04-03T06:01:21;0.80;;;0.80;;
53313;SDS011;39202;51.468;7.146;2023-04-03T06:06:23;0.90;;;0.90;;
53313;SDS011;39202;51.468;7.146;2023-04-03T06:11:26;0.75;;;0.75;;
53313;SDS011;39202;51.468;7.146;2023-04-03T06:16:28;0.60;;;0.60;;
53313;SDS011;39202;51.468;7.146;2023-04-03T06:21:30;0.65;;;0.65;;
53313;SDS011;39202;51.468;7.146;2023-04-03T06:26:33;1.85;;;1.08;;
53313;SDS011;39202;51.468;7.146;2023-04-03T06:31:35;2.00;;;1.35;;
53313;SDS011;39202;51.468;7.146;2023-04-03T06:36:37;1.20;;;1.05;;
53313;SDS011;39202;51.468;7.146;2023-04-03T06:41:41;1.20;;;1.10;;
53313;SDS011;39202;51.468;7.146;2023-04-03T06:46:43;1.95;;;1.48;;
53313;SDS011;39202;51.468;7.146;2023-04-03T06:51:46;1.67;;;1.23;;
53313;SDS011;39202;51.468;7.146;2023-04-03T06:56:49;1.58;;;1.33;;
53313;SDS011;39202;51.468;7.146;2023-04-03T07:01:51;1.88;;;1.50;;
53313;SDS011;39202;51.468;7.146;2023-04-03T07:06:53;1.92;;;1.20;;
53313;SDS011;39202;51.468;7.146;2023-04-03T07:11:57;1.95;;;1.40;;
53313;SDS011;39202;51.468;7.146;2023-04-03T07:16:58;1.75;;;1.20;;
53313;SDS011;39202;51.468;7.146;2023-04-03T07:22:00;2.35;;;1.30;;
53313;SDS011;39202;51.468;7.146;2023-04-03T07:27:03;3.67;;;1.30;;
53313;SDS011;39202;51.468;7.146;2023-04-03T07:32:06;1.95;;;1.27;;
53313;SDS011;39202;51.468;7.146;2023-04-03T07:37:08;1.83;;;1.40;;
53313;SDS011;39202;51.468;7.146;2023-04-03T07:42:11;1.80;;;1.48;;
53313;SDS011;39202;51.468;7.146;2023-04-03T07:47:13;1.92;;;1.35;;
53313;SDS011;39202;51.468;7.146;2023-04-03T07:52:17;2.17;;;1.63;;
53313;SDS011;39202;51.468;7.146;2023-04-03T07:57:20;2.58;;;1.23;;
53313;SDS011;39202;51.468;7.146;2023-04-03T08:02:22;2.08;;;1.33;;
53313;SDS011;39202;51.468;7.146;2023-04-03T08:07:23;3.13;;;1.65;;
53313;SDS011;39202;51.468;7.146;2023-04-03T08:12:27;2.35;;;1.17;;
53313;SDS011;39202;51.468;7.146;2023-04-03T08:17:29;2.20;;;1.40;;
53313;SDS011;39202;51.468;7.146;2023-04-03T08:22:32;1.83;;;1.35;;
53313;SDS011;39202;51.468;7.146;2023-04-03T08:27:35;3.00;;;1.30;;
53313;SDS011;39202;51.468;7.146;2023-04-03T08:32:37;2.28;;;1.23;;
53313;SDS011;39202;51.468;7.146;2023-04-03T08:37:39;2.15;;;1.38;;
53313;SDS011;39202;51.468;7.146;2023-04-03T08:42:44;2.70;;;1.25;;
53313;SDS011;39202;51.468;7.146;2023-04-03T08:47:55;2.78;;;1.48;;
53313;SDS011;39202;51.468;7.146;2023-04-03T08:53:01;2.25;;;1.30;;
53313;SDS011;39202;51.468;7.146;2023-04-03T08:58:10;3.17;;;1.30;;
53313;SDS011;39202;51.468;7.146;2023-04-03T09:03:16;2.90;;;1.50;;
53313;SDS011;39202;51.468;7.146;2023-04-03T09:08:21;1.55;;;1.45;;
53313;SDS011;39202;51.468;7.146;2023-04-03T09:13:29;2.08;;;1.48;;
53313;SDS011;39202;51.468;7.146;2023-04-03T09:18:37;1.80;;;1.30;;
53313;SDS011;39202;51.468;7.146;2023-04-03T09:23:47;1.92;;;1.65;;
53313;SDS011;39202;51.468;7.146;2023-04-03T09:28:53;1.27;;;1.05;;
53313;SDS011;39202;51.468;7.146;2023-04-03T09:33:58;2.53;;;1.40;;
53313;SDS011;39202;51.468;7.146;2023-04-03T09:39:03;1.75;;;1.30;;
53313;SDS011;39202;51.468;7.146;2023-04-03T09:44:21;2.58;;;1.58;;
53313;SDS011;39202;51.468;7.146;2023-04-03T09:49:25;2.60;;;1.40;;
53313;SDS011;39202;51.468;7.146;2023-04-03T09:54:34;2.45;;;1.50;;
53313;SDS011;39202;51.468;7.146;2023-04-03T09:59:42;3.08;;;1.48;;
53313;SDS011;39202;51.468;7.146;2023-04-03T10:04:48;4.65;;;1.67;;
53313;SDS011;39202;51.468;7.146;2023-04-03T10:09:54;1.83;;;1.40;;
53313;SDS011;39202;51.468;7.146;2023-04-03T10:14:58;1.70;;;1.42;;
53313;SDS011;39202;51.468;7.146;2023-04-03T10:20:03;2.13;;;1.50;;
53313;SDS011;39202;51.468;7.146;2023-04-03T10:25:17;1.48;;;1.38;;
53313;SDS011;39202;51.468;7.146;2023-04-03T10:30:30;2.22;;;1.33;;
53313;SDS011;39202;51.468;7.146;2023-04-03T10:35:39;1.17;;;1.10;;
53313;SDS011;39202;51.468;7.146;2023-04-03T10:40:47;1.40;;;1.30;;
53313;SDS011;39202;51.468;7.146;2023-04-03T10:46:01;2.53;;;1.40;;
53313;SDS011;39202;51.468;7.146;2023-04-03T10:51:10;1.23;;;1.10;;
53313;SDS011;39202;51.468;7.146;2023-04-03T10:56:27;1.73;;;1.20;;
53313;SDS011;39202;51.468;7.146;2023-04-03T11:01:35;1.00;;;1.00;;
53313;SDS011;39202;51.468;7.146;2023-04-03T11:06:41;1.88;;;1.10;;
53313;SDS011;39202;51.468;7.146;2023-04-03T11:11:47;1.33;;;1.10;;
53313;SDS011;39202;51.468;7.146;2023-04-03T11:16:55;1.10;;;1.00;;
53313;SDS011;39202;51.468;7.146;2023-04-03T11:22:14;1.00;;;1.00;;
53313;SDS011;39202;51.468;7.146;2023-04-03T11:27:22;1.92;;;1.13;;
53313;SDS011;39202;51.468;7.146;2023-04-03T11:38:06;1.48;;;1.10;;
53313;SDS011;39202;51.468;7.146;2023-04-03T11:43:21;1.00;;;1.00;;
53313;SDS011;39202;51.468;7.146;2023-04-03T11:48:43;1.05;;;1.05;;
53313;SDS011;39202;51.468;7.146;2023-04-03T11:53:48;2.22;;;1.30;;
53313;SDS011;39202;51.468;7.146;2023-04-03T12:04:27;0.82;;;0.80;;
53313;SDS011;39202;51.468;7.146;2023-04-03T12:09:34;1.02;;;0.88;;
53313;SDS011;39202;51.468;7.146;2023-04-03T12:15:20;1.23;;;0.73;;
53313;SDS011;39202;51.468;7.146;2023-04-03T12:20:55;0.98;;;0.90;;
53313;SDS011;39202;51.468;7.146;2023-04-03T12:31:23;0.80;;;0.80;;
53313;SDS011;39202;51.468;7.146;2023-04-03T12:36:37;1.45;;;0.80;;
53313;SDS011;39202;51.468;7.146;2023-04-03T12:41:46;0.95;;;0.95;;
53313;SDS011;39202;51.468;7.146;2023-04-03T12:46:59;0.70;;;0.70;;
53313;SDS011;39202;51.468;7.146;2023-04-03T12:52:05;1.58;;;1.00;;
53313;SDS011;39202;51.468;7.146;2023-04-03T12:57:19;0.70;;;0.70;;
53313;SDS011;39202;51.468;7.146;2023-04-03T13:02:23;1.10;;;1.00;;
53313;SDS011;39202;51.468;7.146;2023-04-03T13:07:28;2.13;;;1.20;;
53313;SDS011;39202;51.468;7.146;2023-04-03T13:12:33;1.20;;;1.10;;
53313;SDS011;39202;51.468;7.146;2023-04-03T13:17:37;1.02;;;0.93;;
53313;SDS011;39202;51.468;7.146;2023-04-03T13:22:42;1.17;;;0.90;;
53313;SDS011;39202;51.468;7.146;2023-04-03T13:27:53;1.38;;;0.90;;
53313;SDS011;39202;51.468;7.146;2023-04-03T13:32:55;2.93;;;1.40;;
53313;SDS011;39202;51.468;7.146;2023-04-03T13:38:01;1.30;;;1.08;;
53313;SDS011;39202;51.468;7.146;2023-04-03T13:43:05;3.47;;;1.10;;
53313;SDS011;39202;51.468;7.146;2023-04-03T13:48:18;1.25;;;0.85;;
53313;SDS011;39202;51.468;7.146;2023-04-03T13:53:24;1.10;;;0.88;;
53313;SDS011;39202;51.468;7.146;2023-04-03T13:58:28;0.90;;;0.90;;
53313;SDS011;39202;51.468;7.146;2023-04-03T14:03:32;1.40;;;1.00;;
53313;SDS011;39202;51.468;7.146;2023-04-03T14:08:40;1.35;;;0.80;;
53313;SDS011;39202;51.468;7.146;2023-04-03T14:13:42;0.98;;;0.90;;
53313;SDS011;39202;51.468;7.146;2023-04-03T14:18:45;1.15;;;0.73;;
53313;SDS011;39202;51.468;7.146;2023-04-03T14:23:49;0.63;;;0.63;;
53313;SDS011;39202;51.468;7.146;2023-04-03T14:28:52;0.80;;;0.80;;
53313;SDS011;39202;51.468;7.146;2023-04-03T14:33:55;0.88;;;0.85;;
53313;SDS011;39202;51.468;7.146;2023-04-03T14:38:58;1.90;;;0.80;;
53313;SDS011;39202;51.468;7.146;2023-04-03T14:44:01;0.90;;;0.90;;
53313;SDS011;39202;51.468;7.146;2023-04-03T14:49:03;1.13;;;0.80;;
53313;SDS011;39202;51.468;7.146;2023-04-03T14:54:14;2.05;;;0.80;;
53313;SDS011;39202;51.468;7.146;2023-04-03T14:59:25;1.85;;;1.00;;
53313;SDS011;39202;51.468;7.146;2023-04-03T15:04:27;1.38;;;0.90;;
53313;SDS011;39202;51.468;7.146;2023-04-03T15:09:31;1.00;;;0.80;;
53313;SDS011;39202;51.468;7.146;2023-04-03T15:14:33;1.58;;;0.88;;
53313;SDS011;39202;51.468;7.146;2023-04-03T15:19:35;1.27;;;1.00;;
53313;SDS011;39202;51.468;7.146;2023-04-03T15:24:40;1.10;;;1.05;;
53313;SDS011;39202;51.468;7.146;2023-04-03T15:29:42;0.98;;;0.90;;
53313;SDS011;39202;51.468;7.146;2023-04-03T15:34:44;1.65;;;0.88;;
53313;SDS011;39202;51.468;7.146;2023-04-03T15:39:47;1.20;;;0.90;;
53313;SDS011;39202;51.468;7.146;2023-04-03T15:44:49;0.80;;;0.80;;
53313;SDS011;39202;51.468;7.146;2023-04-03T15:49:51;1.83;;;0.90;;
53313;SDS011;39202;51.468;7.146;2023-04-03T15:54:55;1.25;;;1.00;;
53313;SDS011;39202;51.468;7.146;2023-04-03T15:59:57;2.05;;;0.90;;
53313;SDS011;39202;51.468;7.146;2023-04-03T16:04:59;1.02;;;0.80;;
53313;SDS011;39202;51.468;7.146;2023-04-03T16:10:02;0.90;;;0.90;;
53313;SDS011;39202;51.468;7.146;2023-04-03T16:15:05;1.13;;;0.88;;
53313;SDS011;39202;51.468;7.146;2023-04-03T16:20:08;1.00;;;0.90;;
53313;SDS011;39202;51.468;7.146;2023-04-03T16:25:12;0.90;;;0.90;;
53313;SDS011;39202;51.468;7.146;2023-04-03T16:30:14;1.10;;;0.80;;
53313;SDS011;39202;51.468;7.146;2023-04-03T16:35:16;0.68;;;0.68;;
53313;SDS011;39202;51.468;7.146;2023-04-03T16:40:19;1.52;;;1.10;;
53313;SDS011;39202;51.468;7.146;2023-04-03T16:45:21;0.77;;;0.77;;
53313;SDS011;39202;51.468;7.146;2023-04-03T16:50:23;1.20;;;1.00;;
53313;SDS011;39202;51.468;7.146;2023-04-03T16:55:26;0.90;;;0.90;;
53313;SDS011;39202;51.468;7.146;2023-04-03T17:00:28;0.90;;;0.90;;
53313;SDS011;39202;51.468;7.146;2023-04-03T17:05:31;0.77;;;0.77;;
53313;SDS011;39202;51.468;7.146;2023-04-03T17:10:34;1.80;;;0.90;;
53313;SDS011;39202;51.468;7.146;2023-04-03T17:15:36;0.77;;;0.77;;
53313;SDS011;39202;51.468;7.146;2023-04-03T17:20:38;0.70;;;0.70;;
53313;SDS011;39202;51.468;7.146;2023-04-03T17:25:41;0.80;;;0.80;;
53313;SDS011;39202;51.468;7.146;2023-04-03T17:30:43;0.70;;;0.70;;
53313;SDS011;39202;51.468;7.146;2023-04-03T17:35:45;0.70;;;0.70;;
53313;SDS011;39202;51.468;7.146;2023-04-03T17:40:48;1.52;;;0.90;;
53313;SDS011;39202;51.468;7.146;2023-04-03T17:45:50;0.70;;;0.70;;
53313;SDS011;39202;51.468;7.146;2023-04-03T17:50:52;0.80;;;0.80;;
53313;SDS011;39202;51.468;7.146;2023-04-03T17:55:55;0.73;;;0.73;;
53313;SDS011;39202;51.468;7.146;2023-04-03T18:00:57;0.75;;;0.73;;
53313;SDS011;39202;51.468;7.146;2023-04-03T18:06:01;0.70;;;0.70;;
53313;SDS011;39202;51.468;7.146;2023-04-03T18:11:04;0.80;;;0.80;;
53313;SDS011;39202;51.468;7.146;2023-04-03T18:16:07;0.63;;;0.63;;
53313;SDS011;39202;51.468;7.146;2023-04-03T18:21:11;0.93;;;0.65;;
53313;SDS011;39202;51.468;7.146;2023-04-03T18:26:15;0.90;;;0.85;;
53313;SDS011;39202;51.468;7.146;2023-04-03T18:31:16;0.75;;;0.75;;
53313;SDS011;39202;51.468;7.146;2023-04-03T18:36:20;0.70;;;0.70;;
53313;SDS011;39202;51.468;7.146;2023-04-03T18:41:24;0.55;;;0.55;;
53313;SDS011;39202;51.468;7.146;2023-04-03T18:46:29;0.70;;;0.70;;
53313;SDS011;39202;51.468;7.146;2023-04-03T18:51:32;0.63;;;0.63;;
53313;SDS011;39202;51.468;7.146;2023-04-03T18:56:35;0.75;;;0.75;;
53313;SDS011;39202;51.468;7.146;2023-04-03T19:01:37;0.68;;;0.68;;
53313;SDS011;39202;51.468;7.146;2023-04-03T19:06:38;0.73;;;0.73;;
53313;SDS011;39202;51.468;7.146;2023-04-03T19:11:42;0.68;;;0.68;;
53313;SDS011;39202;51.468;7.146;2023-04-03T19:16:43;0.50;;;0.50;;
53313;SDS011;39202;51.468;7.146;2023-04-03T19:21:45;0.60;;;0.60;;
53313;SDS011;39202;51.468;7.146;2023-04-03T19:26:48;0.60;;;0.60;;
53313;SDS011;39202;51.468;7.146;2023-04-03T19:31:50;0.70;;;0.70;;
53313;SDS011;39202;51.468;7.146;2023-04-03T19:36:52;0.60;;;0.60;;
53313;SDS011;39202;51.468;7.146;2023-04-03T19:41:55;0.70;;;0.70;;
53313;SDS011;39202;51.468;7.146;2023-04-03T19:46:57;0.77;;;0.77;;
53313;SDS011;39202;51.468;7.146;2023-04-03T19:52:00;0.60;;;0.60;;
53313;SDS011;39202;51.468;7.146;2023-04-03T19:57:03;0.70;;;0.70;;
53313;SDS011;39202;51.468;7.146;2023-04-03T20:02:05;0.70;;;0.70;;
53313;SDS011;39202;51.468;7.146;2023-04-03T20:07:07;0.60;;;0.60;;
53313;SDS011;39202;51.468;7.146;2023-04-03T20:12:10;0.50;;;0.50;;
53313;SDS011;39202;51.468;7.146;2023-04-03T20:17:11;0.80;;;0.65;;
53313;SDS011;39202;51.468;7.146;2023-04-03T20:22:13;0.60;;;0.60;;
53313;SDS011;39202;51.468;7.146;2023-04-03T20:27:16;0.60;;;0.60;;
53313;SDS011;39202;51.468;7.146;2023-04-03T20:32:19;0.65;;;0.65;;
53313;SDS011;39202;51.468;7.146;2023-04-03T20:37:21;0.55;;;0.55;;
53313;SDS011;39202;51.468;7.146;2023-04-03T20:42:24;0.50;;;0.50;;
53313;SDS011;39202;51.468;7.146;2023-04-03T20:47:26;0.55;;;0.55;;
53313;SDS011;39202;51.468;7.146;2023-04-03T20:52:28;0.70;;;0.65;;
53313;SDS011;39202;51.468;7.146;2023-04-03T20:57:33;0.70;;;0.70;;
53313;SDS011;39202;51.468;7.146;2023-04-03T21:02:35;0.70;;;0.70;;
53313;SDS011;39202;51.468;7.146;2023-04-03T21:24:09;0.50;;;0.50;;
53313;SDS011;39202;51.468;7.146;2023-04-03T21:29:11;0.65;;;0.65;;
53313;SDS011;39202;51.468;7.146;2023-04-03T21:34:15;0.45;;;0.45;;
53313;SDS011;39202;51.468;7.146;2023-04-03T21:39:17;0.50;;;0.50;;
53313;SDS011;39202;51.468;7.146;2023-04-03T21:44:20;0.55;;;0.55;;
53313;SDS011;39202;51.468;7.146;2023-04-03T21:49:24;0.60;;;0.60;;
53313;SDS011;39202;51.468;7.146;2023-04-03T21:54:26;0.63;;;0.63;;
53313;SDS011;39202;51.468;7.146;2023-04-03T21:59:28;0.60;;;0.60;;
53313;SDS011;39202;51.468;7.146;2023-04-03T22:04:31;0.47;;;0.47;;
53313;SDS011;39202;51.468;7.146;2023-04-03T22:09:33;0.75;;;0.75;;
53313;SDS011;39202;51.468;7.146;2023-04-03T22:14:34;0.57;;;0.57;;
53313;SDS011;39202;51.468;7.146;2023-04-03T22:19:38;0.70;;;0.50;;
53313;SDS011;39202;51.468;7.146;2023-04-03T22:24:39;0.50;;;0.50;;
53313;SDS011;39202;51.468;7.146;2023-04-03T22:29:41;0.50;;;0.50;;
53313;SDS011;39202;51.468;7.146;2023-04-03T22:34:44;0.60;;;0.60;;
53313;SDS011;39202;51.468;7.146;2023-04-03T22:39:46;1.20;;;0.60;;
53313;SDS011;39202;51.468;7.146;2023-04-03T22:44:48;0.60;;;0.60;;
53313;SDS011;39202;51.468;7.146;2023-04-03T22:49:51;0.50;;;0.50;;
53313;SDS011;39202;51.468;7.146;2023-04-03T22:54:53;0.55;;;0.55;;
53313;SDS011;39202;51.468;7.146;2023-04-03T22:59:55;0.45;;;0.45;;
53313;SDS011;39202;51.468;7.146;2023-04-03T23:04:58;0.50;;;0.50;;
53313;SDS011;39202;51.468;7.146;2023-04-03T23:09:59;0.50;;;0.50;;
53313;SDS011;39202;51.468;7.146;2023-04-03T23:15:01;0.55;;;0.55;;
53313;SDS011;39202;51.468;7.146;2023-04-03T23:20:05;0.50;;;0.50;;
53313;SDS011;39202;51.468;7.146;2023-04-03T23:25:07;0.50;;;0.50;;
53313;SDS011;39202;51.468;7.146;2023-04-03T23:30:10;0.47;;;0.47;;
53313;SDS011;39202;51.468;7.146;2023-04-03T23:35:13;0.50;;;0.50;;
53313;SDS011;39202;51.468;7.146;2023-04-03T23:40:15;0.50;;;0.50;;
53313;SDS011;39202;51.468;7.146;2023-04-03T23:45:17;0.60;;;0.60;;
53313;SDS011;39202;51.468;7.146;2023-04-03T23:50:20;0.50;;;0.50;;
53313;SDS011;39202;51.468;7.146;2023-04-03T23:55:22;0.65;;;0.65;;
